Карточка аэропорта USSS

Внимание!
Информация на этой странице в стадии наполнения.
Если вы не увидели какой-то информации, или заметили неточность - пожалуйста сообщите нам!
Спасибо!
Команда RU-STAFF
Название аэропортаКольцово
Название аэропорта (англ.)Koltsovo
Превышение766 ft. (233.5 m.)
Координаты56°44.586', 60°48.186'
Высота перехода900m
Эшелон переходаQFE>=739mm:FL050; QFE 712mm-738mm:FL060; QFE<=712mm:FL70
Коды ответчика5520-5557
Зона ОрВДЕкатеринбург РПИ (USSV)
Данные METARUSSS 070830Z 27004MPS CAVOK M15/M16 Q1037 R26L/82//50 NOSIG RMK QFE757/1009
Проноз погоды (TAF)USSS 070753Z 0709/0809 23003G08MPS CAVOK BECMG 0711/0714 6000 NSC FM071700 27003G13MPS 9999 SCT020
NOTAMshow/hide NOTAM
AWOS   TABLE

Информация о ВПП

ВПП Длина ВПП (м.) Покрытие Курс ВПП Частота ILS
26L3026Бетон259109.5
08R3026Бетон79109.9
26R3004Асфальтобетон255110.5
08L3004Асфальтобетон75111.7

Диспетчерские позиции

Позывной Наименование органа УВД Частота
USSS_APPКольцово-Подход125.9
USSS_R_APPКольцово-Круг118.7
USSS_TWRКольцово-Старт124.3
USSS_GNDКольцово-Руление119.0
USSSFM1Машина сопровождения119.000
USSV_FSS_CTRКольцово Транзит131.900
USSS_ATIS_APPКольцово АТИС127.850



Спутниковое изображение